Time;durP1;ratioP1;P1;durP2;ratioP2;P2;SDS_P1;SDS_P2;PMS_P1;PMS_P2;Temp;Humidity;BMP_temperature;BMP_pressure;BME280_temperature;BME280_humidity;BME280_pressure;Samples;Min_cycle;Max_cycle;Signal;HPM_P1;HPM_P2
2022/11/16 00:01:25;;;;;;;7.35;2.65;;;8.00;99.90;;;;;;4928029;29;20179;-92
2022/11/16 00:03:56;;;;;;;7.68;2.88;;;7.90;99.90;;;;;;4936482;29;20023;-91
2022/11/16 00:06:22;;;;;;;8.40;2.80;;;7.80;99.90;;;;;;4933251;29;20036;-92
2022/11/16 00:11:36;;;;;;;11.05;3.33;;;7.70;99.90;;;;;;4942120;29;20078;-91
2022/11/16 00:14:02;;;;;;;8.80;3.08;;;7.70;99.90;;;;;;4942882;29;20466;-90
2022/11/16 00:16:28;;;;;;;7.15;3.00;;;7.60;99.90;;;;;;4941909;29;20038;-90
2022/11/16 00:18:59;;;;;;;6.45;3.42;;;7.50;99.90;;;;;;4925748;29;20031;-90
2022/11/16 00:21:26;;;;;;;9.80;2.83;;;7.50;99.90;;;;;;4925600;29;20020;-90
2022/11/16 00:23:52;;;;;;;11.00;3.20;;;7.50;99.90;;;;;;4925968;29;20070;-91
2022/11/16 00:26:18;;;;;;;9.95;3.03;;;7.40;99.90;;;;;;4942038;29;20059;-92
2022/11/16 00:28:43;;;;;;;9.27;2.90;;;7.30;99.90;;;;;;4942646;29;20516;-92
2022/11/16 00:31:09;;;;;;;13.15;3.85;;;7.20;99.90;;;;;;4941423;29;20038;-91
2022/11/16 00:33:35;;;;;;;8.73;4.22;;;7.20;99.90;;;;;;4922383;29;20078;-92
2022/11/16 00:36:03;;;;;;;9.82;3.70;;;7.20;99.90;;;;;;4921958;29;20545;-91
2022/11/16 00:38:28;;;;;;;8.50;3.85;;;7.20;99.90;;;;;;4938548;29;20104;-91
2022/11/16 00:40:54;;;;;;;9.40;3.55;;;7.10;99.90;;;;;;4938652;29;20043;-91
2022/11/16 00:43:20;;;;;;;11.20;5.05;;;7.10;99.90;;;;;;4921122;29;20059;-90
2022/11/16 00:45:45;;;;;;;9.07;4.47;;;7.10;99.90;;;;;;4921301;29;20102;-93
2022/11/16 00:48:12;;;;;;;15.95;5.75;;;7.00;99.90;;;;;;4947296;29;20035;-91
2022/11/16 00:50:38;;;;;;;10.23;5.15;;;7.00;99.90;;;;;;4922294;29;20020;-93
2022/11/16 00:53:05;;;;;;;12.88;5.00;;;6.90;99.90;;;;;;4917516;29;20042;-93
2022/11/16 00:55:31;;;;;;;10.95;4.70;;;6.90;99.90;;;;;;4917481;29;20028;-92
2022/11/16 00:57:57;;;;;;;17.05;6.05;;;7.00;99.90;;;;;;4943640;29;20099;-91
2022/11/16 01:00:22;;;;;;;14.65;6.90;;;7.00;99.90;;;;;;4926691;29;20075;-92
2022/11/16 01:02:48;;;;;;;19.15;6.88;;;7.00;99.90;;;;;;4929934;29;20122;-91
2022/11/16 01:05:14;;;;;;;13.73;6.57;;;7.10;99.90;;;;;;4950140;29;20027;-90
2022/11/16 01:07:39;;;;;;;21.45;6.75;;;7.10;99.90;;;;;;4944225;29;20044;-90
2022/11/16 01:10:09;;;;;;;18.20;7.82;;;7.10;99.90;;;;;;4944568;28;20039;-89
2022/11/16 01:12:36;;;;;;;17.13;7.78;;;7.10;99.90;;;;;;4944044;28;20035;-91
2022/11/16 01:15:03;;;;;;;16.05;7.65;;;7.20;99.90;;;;;;4946354;29;20032;-92
2022/11/16 01:17:28;;;;;;;18.88;7.80;;;7.20;99.90;;;;;;4925669;29;20434;-90
2022/11/16 01:19:54;;;;;;;17.65;7.45;;;7.30;99.90;;;;;;4924962;29;20020;-91
2022/11/16 01:22:20;;;;;;;17.95;7.63;;;7.30;99.90;;;;;;4940210;29;20047;-91
2022/11/16 01:24:46;;;;;;;19.90;8.98;;;7.40;99.90;;;;;;4923547;29;20027;-91
2022/11/16 01:27:12;;;;;;;15.50;7.65;;;7.40;99.90;;;;;;4925891;29;20035;-93
2022/11/16 01:29:38;;;;;;;17.35;7.70;;;7.40;99.90;;;;;;4947769;29;20051;-91
2022/11/16 01:32:03;;;;;;;13.85;6.95;;;7.40;99.90;;;;;;4926490;29;20065;-91
2022/11/16 01:34:29;;;;;;;16.23;7.97;;;7.30;99.90;;;;;;4941195;29;20038;-90
2022/11/16 01:36:55;;;;;;;15.35;6.47;;;7.40;99.90;;;;;;4923116;29;20047;-91
2022/11/16 01:39:20;;;;;;;27.08;10.73;;;7.30;99.90;;;;;;4921916;29;20482;-91
2022/11/16 01:41:46;;;;;;;17.75;8.55;;;7.30;99.90;;;;;;4920400;29;20063;-91
2022/11/16 01:44:30;;;;;;;14.35;8.27;;;7.30;99.90;;;;;;4938480;29;20062;-92
2022/11/16 01:47:05;;;;;;;15.27;7.65;;;7.30;99.90;;;;;;4933554;29;20047;-91
2022/11/16 01:49:35;;;;;;;14.60;8.00;;;7.30;99.90;;;;;;4919603;29;20026;-92
2022/11/16 01:52:10;;;;;;;15.67;8.40;;;7.20;99.90;;;;;;4937549;29;20043;-90
2022/11/16 01:54:40;;;;;;;18.27;7.72;;;7.20;99.90;;;;;;4933436;28;20030;-91
2022/11/16 01:57:10;;;;;;;12.15;7.78;;;7.30;99.90;;;;;;4932946;28;20632;-91
2022/11/16 01:59:37;;;;;;;14.45;7.82;;;7.30;99.90;;;;;;4921145;29;20028;-93
2022/11/16 02:02:03;;;;;;;13.55;7.03;;;7.20;99.90;;;;;;4937654;29;20032;-88
2022/11/16 02:04:29;;;;;;;23.27;7.57;;;7.20;99.90;;;;;;4920375;29;20027;-90
2022/11/16 02:07:14;;;;;;;11.77;6.80;;;7.30;99.90;;;;;;4920569;29;20032;-90
2022/11/16 02:10:11;;;;;;;11.35;6.78;;;7.30;99.90;;;;;;4935120;29;20029;-92
2022/11/16 02:12:56;;;;;;;13.18;7.07;;;7.30;99.90;;;;;;4936306;29;20036;-93
2022/11/16 02:15:24;;;;;;;13.23;7.25;;;7.30;99.90;;;;;;4936860;29;20028;-92
2022/11/16 02:18:12;;;;;;;8.52;6.50;;;7.30;99.90;;;;;;4920330;29;20083;-93
2022/11/16 02:20:59;;;;;;;11.32;7.15;;;7.30;99.90;;;;;;4935086;29;20533;-93
2022/11/16 02:23:34;;;;;;;17.33;7.18;;;7.30;99.90;;;;;;4933657;29;20030;-94
2022/11/16 02:26:16;;;;;;;10.30;6.75;;;7.30;99.90;;;;;;4920283;29;20393;-91
2022/11/16 02:28:45;;;;;;;10.85;5.82;;;7.40;99.90;;;;;;4935387;29;20042;-92
2022/11/16 02:31:16;;;;;;;13.20;7.38;;;7.40;99.90;;;;;;4920196;29;20024;-93
2022/11/16 02:33:45;;;;;;;9.35;5.88;;;7.40;99.90;;;;;;4920170;29;20382;-93
2022/11/16 02:36:15;;;;;;;10.35;6.55;;;7.40;99.90;;;;;;4926672;29;20068;-93
2022/11/16 02:38:54;;;;;;;14.95;6.75;;;7.40;99.90;;;;;;4938841;29;20035;-91
2022/11/16 02:41:23;;;;;;;7.85;5.65;;;7.40;99.90;;;;;;4929371;29;20036;-92
2022/11/16 02:44:14;;;;;;;9.98;6.35;;;7.40;99.90;;;;;;4925115;29;20111;-92
2022/11/16 02:46:44;;;;;;;10.15;7.22;;;7.40;99.90;;;;;;4924931;29;20135;-91
2022/11/16 02:49:16;;;;;;;10.70;5.80;;;7.40;99.90;;;;;;4929639;29;20027;-91
2022/11/16 02:51:44;;;;;;;9.57;5.68;;;7.40;99.90;;;;;;4923340;29;20043;-90
2022/11/16 02:54:15;;;;;;;7.55;5.22;;;7.40;99.90;;;;;;4931801;28;20039;-91
2022/11/16 02:56:49;;;;;;;6.63;4.95;;;7.40;99.90;;;;;;4936062;29;20044;-90
2022/11/16 02:59:15;;;;;;;8.65;5.32;;;7.40;99.90;;;;;;4928721;29;20078;-91
2022/11/16 03:01:50;;;;;;;9.90;4.82;;;7.40;99.90;;;;;;4919965;29;20020;-90
2022/11/16 03:04:27;;;;;;;10.88;5.20;;;7.40;99.90;;;;;;4919425;29;20027;-91
2022/11/16 03:06:55;;;;;;;6.63;4.63;;;7.40;99.90;;;;;;4920043;29;20027;-91
2022/11/16 03:09:26;;;;;;;7.18;4.93;;;7.40;99.90;;;;;;4920126;29;20032;-91
2022/11/16 03:11:59;;;;;;;6.43;4.47;;;7.40;99.90;;;;;;4918718;29;20118;-91
2022/11/16 03:14:43;;;;;;;6.65;4.57;;;7.40;99.90;;;;;;4935803;29;20039;-91
2022/11/16 03:17:15;;;;;;;9.68;5.20;;;7.30;99.90;;;;;;4933560;29;20023;-91
2022/11/16 03:19:47;;;;;;;8.40;5.40;;;7.30;99.90;;;;;;4918874;29;20025;-90
2022/11/16 03:22:48;;;;;;;5.88;4.35;;;7.30;99.90;;;;;;4916995;29;20126;-91
2022/11/16 03:25:18;;;;;;;7.65;4.85;;;7.30;99.90;;;;;;4933525;29;20039;-91
2022/11/16 03:28:06;;;;;;;5.45;4.10;;;7.30;99.90;;;;;;4918821;29;20032;-92
2022/11/16 03:30:37;;;;;;;10.85;4.00;;;7.30;99.90;;;;;;4914163;29;20114;-91
2022/11/16 03:33:24;;;;;;;6.85;4.25;;;7.30;99.90;;;;;;4918660;29;20028;-92
2022/11/16 03:35:59;;;;;;;5.72;4.05;;;7.30;99.90;;;;;;4932534;29;20079;-92
2022/11/16 03:38:26;;;;;;;5.18;3.75;;;7.30;99.90;;;;;;4918496;29;20024;-91
2022/11/16 03:40:56;;;;;;;6.57;4.40;;;7.30;99.90;;;;;;4918733;29;20409;-92
2022/11/16 03:43:24;;;;;;;6.32;4.20;;;7.30;99.90;;;;;;4916799;29;20031;-92
2022/11/16 03:45:50;;;;;;;7.50;3.83;;;7.30;99.90;;;;;;4915864;29;20131;-92
2022/11/16 03:48:15;;;;;;;4.72;3.75;;;7.40;99.90;;;;;;4934114;29;20043;-93
2022/11/16 03:50:42;;;;;;;5.78;4.20;;;7.40;99.90;;;;;;4918596;29;20540;-92
2022/11/16 03:53:08;;;;;;;4.47;3.35;;;7.50;99.90;;;;;;4918510;29;20049;-92
2022/11/16 03:55:34;;;;;;;6.10;3.28;;;7.50;99.90;;;;;;4914324;29;20195;-92
2022/11/16 03:58:00;;;;;;;6.50;3.30;;;7.50;99.90;;;;;;4918730;29;20101;-93
2022/11/16 04:00:25;;;;;;;6.88;3.45;;;7.60;99.90;;;;;;4914046;29;20492;-91
2022/11/16 04:02:51;;;;;;;9.00;3.10;;;7.60;99.90;;;;;;4918591;29;20020;-91
2022/11/16 04:24:44;;;;;;;7.20;3.20;;;7.30;99.90;;;;;;4939192;29;20067;-91
2022/11/16 04:29:59;;;;;;;4.32;3.17;;;7.20;99.90;;;;;;4945535;29;20054;-90
2022/11/16 04:37:55;;;;;;;8.30;3.42;;;7.10;99.90;;;;;;4936820;29;20059;-92
2022/11/16 04:40:29;;;;;;;10.00;3.42;;;7.10;99.90;;;;;;4939862;29;20027;-91
2022/11/16 04:42:56;;;;;;;9.98;3.50;;;7.10;99.90;;;;;;4919518;29;20028;-92
2022/11/16 04:48:09;;;;;;;6.88;3.50;;;7.10;99.90;;;;;;4938458;29;20091;-93
2022/11/16 04:50:35;;;;;;;5.45;3.13;;;7.10;99.90;;;;;;4921364;29;20020;-92
2022/11/16 04:53:01;;;;;;;8.00;3.10;;;7.00;99.90;;;;;;4921302;29;20039;-92
2022/11/16 04:55:27;;;;;;;10.57;3.47;;;7.00;99.90;;;;;;4933535;28;20118;-92
2022/11/16 04:57:53;;;;;;;12.20;3.92;;;7.00;99.90;;;;;;4921837;29;20456;-91
2022/11/16 05:00:19;;;;;;;17.15;4.40;;;7.00;99.90;;;;;;4920766;29;20098;-90
2022/11/16 05:02:45;;;;;;;8.68;4.03;;;7.00;99.90;;;;;;4933402;28;20016;-91
2022/11/16 05:05:11;;;;;;;8.40;3.92;;;7.00;99.90;;;;;;4921407;29;20509;-91
2022/11/16 05:07:37;;;;;;;8.75;4.38;;;7.00;99.90;;;;;;4938127;29;20016;-92
2022/11/16 05:10:04;;;;;;;15.77;5.32;;;7.00;99.90;;;;;;4921458;29;20114;-92
2022/11/16 05:12:30;;;;;;;8.93;4.68;;;7.00;99.90;;;;;;4921191;29;20503;-93
2022/11/16 05:14:56;;;;;;;10.93;4.40;;;7.00;99.90;;;;;;4920867;29;20024;-92
2022/11/16 05:17:23;;;;;;;20.35;6.95;;;7.00;99.90;;;;;;4920216;29;20024;-91
2022/11/16 05:22:34;;;;;;;15.95;7.78;;;7.10;99.90;;;;;;4938347;29;20496;-92
2022/11/16 05:24:59;;;;;;;15.52;6.20;;;7.10;99.90;;;;;;4920937;29;20027;-92
2022/11/16 05:27:26;;;;;;;12.27;5.97;;;7.10;99.90;;;;;;4936433;29;20086;-93
2022/11/16 05:29:53;;;;;;;13.65;6.43;;;7.10;99.90;;;;;;4920604;29;20465;-93
2022/11/16 05:32:21;;;;;;;12.32;5.95;;;7.10;99.90;;;;;;4920512;29;20040;-92
2022/11/16 05:34:47;;;;;;;14.07;5.60;;;7.00;99.90;;;;;;4937703;29;20028;-92
2022/11/16 05:37:13;;;;;;;15.13;5.68;;;7.10;99.90;;;;;;4920568;29;20055;-92
2022/11/16 05:39:39;;;;;;;11.05;4.35;;;7.00;99.90;;;;;;4937534;29;20031;-90
2022/11/16 05:42:06;;;;;;;13.02;5.07;;;7.00;99.90;;;;;;4918509;29;20035;-90
2022/11/16 05:44:32;;;;;;;16.80;4.85;;;7.00;99.90;;;;;;4937737;29;20492;-92
2022/11/16 05:46:58;;;;;;;9.63;4.68;;;7.00;99.90;;;;;;4905981;29;20511;-92
2022/11/16 05:49:24;;;;;;;11.30;4.80;;;7.00;99.90;;;;;;4917098;29;20149;-91
2022/11/16 05:51:50;;;;;;;11.18;3.78;;;7.00;99.90;;;;;;4901374;29;20025;-92
2022/11/16 05:54:22;;;;;;;11.43;3.47;;;7.00;99.90;;;;;;4901930;29;20422;-92
2022/11/16 05:56:48;;;;;;;7.13;3.20;;;7.00;99.90;;;;;;4896969;29;20024;-91
2022/11/16 05:59:16;;;;;;;7.78;2.80;;;6.90;99.90;;;;;;4902678;29;20028;-91
2022/11/16 06:01:41;;;;;;;5.32;1.83;;;6.90;99.90;;;;;;4907798;29;20385;-92
2022/11/16 06:04:07;;;;;;;9.70;4.47;;;6.90;99.90;;;;;;4904981;29;20021;-92
2022/11/16 06:06:33;;;;;;;8.10;3.38;;;6.90;99.90;;;;;;4909038;29;20060;-93
2022/11/16 06:08:59;;;;;;;6.45;2.65;;;6.80;99.90;;;;;;4906006;29;20049;-90
2022/11/16 06:11:25;;;;;;;8.43;2.72;;;6.80;99.90;;;;;;4904143;29;20477;-91
2022/11/16 06:13:51;;;;;;;8.82;3.05;;;6.90;99.90;;;;;;4917776;29;20040;-92
2022/11/16 06:16:17;;;;;;;9.98;3.70;;;6.80;99.90;;;;;;4901391;29;20020;-91
2022/11/16 06:18:45;;;;;;;11.30;3.50;;;6.80;99.90;;;;;;4901532;29;20106;-92
2022/11/16 06:21:11;;;;;;;10.73;3.22;;;6.80;99.90;;;;;;4899152;29;20055;-92
2022/11/16 06:23:37;;;;;;;8.70;4.18;;;6.80;99.90;;;;;;4901195;29;20021;-92
2022/11/16 06:26:04;;;;;;;9.07;2.60;;;6.80;99.90;;;;;;4900939;29;20447;-92
2022/11/16 06:28:30;;;;;;;11.50;2.90;;;6.90;99.90;;;;;;4917390;29;20024;-92
2022/11/16 06:30:56;;;;;;;6.30;3.53;;;6.90;99.90;;;;;;4900332;29;20028;-93
2022/11/16 06:33:21;;;;;;;18.83;3.67;;;6.90;99.90;;;;;;4917799;29;20044;-92
2022/11/16 06:35:47;;;;;;;7.13;3.30;;;6.90;99.90;;;;;;4917647;29;20095;-92
2022/11/16 06:38:17;;;;;;;14.57;3.65;;;6.80;99.90;;;;;;4900898;29;20035;-92
2022/11/16 06:40:54;;;;;;;15.57;3.92;;;6.80;99.90;;;;;;4920526;29;20485;-92
2022/11/16 06:43:21;;;;;;;11.55;3.42;;;6.80;99.90;;;;;;4915492;29;20043;-92
2022/11/16 06:45:51;;;;;;;9.18;3.78;;;6.80;99.90;;;;;;4905814;29;20055;-91
2022/11/16 06:48:18;;;;;;;7.82;3.80;;;6.80;99.90;;;;;;4921618;29;20032;-92
2022/11/16 06:50:45;;;;;;;5.22;3.10;;;6.80;99.90;;;;;;4901040;29;20083;-92
2022/11/16 06:53:12;;;;;;;10.63;3.50;;;6.80;99.90;;;;;;4898653;29;20032;-93
2022/11/16 06:55:37;;;;;;;8.07;3.90;;;6.80;99.90;;;;;;4896326;29;20123;-92
2022/11/16 06:58:03;;;;;;;10.30;4.05;;;6.80;99.90;;;;;;4901091;29;20107;-91
2022/11/16 07:00:29;;;;;;;5.88;3.63;;;6.80;99.90;;;;;;4900992;29;20023;-91
2022/11/16 07:02:54;;;;;;;9.10;3.65;;;6.80;99.90;;;;;;4917061;29;20108;-91
2022/11/16 07:05:20;;;;;;;6.68;3.45;;;6.80;99.90;;;;;;4916954;29;20032;-93
2022/11/16 07:07:46;;;;;;;13.82;4.03;;;6.80;99.90;;;;;;4895626;29;20111;-92
2022/11/16 07:10:12;;;;;;;7.68;3.78;;;6.80;99.90;;;;;;4916185;29;20040;-91
2022/11/16 07:12:38;;;;;;;12.45;4.05;;;6.80;99.90;;;;;;4917153;29;20046;-90
2022/11/16 07:15:04;;;;;;;17.25;4.47;;;6.80;99.90;;;;;;4900964;29;20118;-92
2022/11/16 07:17:31;;;;;;;9.07;3.42;;;6.80;99.90;;;;;;4897640;29;20036;-91
2022/11/16 07:19:57;;;;;;;5.45;2.60;;;6.80;99.90;;;;;;4917099;29;20023;-91
2022/11/16 07:22:24;;;;;;;6.97;3.45;;;6.80;99.90;;;;;;4916874;29;20029;-92
2022/11/16 07:24:50;;;;;;;14.88;3.15;;;6.80;99.90;;;;;;4896560;29;20175;-91
2022/11/16 07:27:16;;;;;;;8.13;3.17;;;6.80;99.90;;;;;;4899901;29;20115;-91
2022/11/16 07:29:41;;;;;;;10.88;3.40;;;6.80;99.90;;;;;;4899926;29;20103;-91
2022/11/16 07:32:07;;;;;;;8.50;3.13;;;6.70;99.90;;;;;;4902967;29;20036;-90
2022/11/16 07:34:32;;;;;;;13.35;3.53;;;6.70;99.90;;;;;;4908207;29;20115;-89
2022/11/16 07:36:59;;;;;;;14.15;3.92;;;6.70;99.90;;;;;;4918462;29;20024;-93
2022/11/16 07:39:25;;;;;;;9.32;2.90;;;6.70;99.90;;;;;;4916012;29;20024;-91
2022/11/16 07:41:52;;;;;;;8.77;3.53;;;6.80;99.90;;;;;;4919600;29;20027;-93
2022/11/16 07:44:18;;;;;;;13.52;3.20;;;6.80;99.90;;;;;;4902353;29;20036;-92
2022/11/16 07:46:44;;;;;;;13.57;2.95;;;6.80;99.90;;;;;;4927388;29;20056;-91
2022/11/16 07:49:17;;;;;;;6.93;2.50;;;6.80;99.90;;;;;;4906525;29;20071;-91
2022/11/16 07:51:43;;;;;;;16.35;3.67;;;6.90;99.90;;;;;;4901855;29;20028;-89
2022/11/16 07:54:13;;;;;;;8.32;3.40;;;6.90;99.90;;;;;;4926007;29;20036;-92
2022/11/16 07:56:39;;;;;;;16.43;2.93;;;6.90;99.90;;;;;;4907556;29;20020;-92
2022/11/16 07:59:04;;;;;;;9.43;2.80;;;6.90;99.90;;;;;;4903411;29;20332;-90
2022/11/16 08:01:31;;;;;;;8.73;3.25;;;6.90;99.90;;;;;;4902136;29;20119;-91
2022/11/16 08:03:58;;;;;;;7.93;2.88;;;6.80;99.90;;;;;;4903549;29;20134;-91
2022/11/16 08:06:26;;;;;;;8.57;2.78;;;6.80;99.90;;;;;;4903029;29;20692;-92
2022/11/16 08:08:51;;;;;;;11.30;3.28;;;6.80;99.90;;;;;;4901886;29;20497;-91
2022/11/16 08:11:17;;;;;;;11.82;3.45;;;6.80;99.90;;;;;;4903144;29;20119;-90
2022/11/16 08:13:43;;;;;;;10.95;3.45;;;6.80;99.90;;;;;;4903195;29;20497;-92
2022/11/16 08:16:10;;;;;;;6.72;3.60;;;6.80;99.90;;;;;;4903051;29;20023;-93
2022/11/16 08:18:37;;;;;;;10.55;3.72;;;6.70;99.90;;;;;;4903684;29;20035;-92
2022/11/16 08:21:04;;;;;;;11.30;3.20;;;6.80;99.90;;;;;;4903743;29;20119;-93
2022/11/16 08:23:31;;;;;;;9.07;3.65;;;6.80;99.90;;;;;;4905253;29;20024;-91
2022/11/16 08:26:03;;;;;;;8.18;3.78;;;6.80;99.90;;;;;;4907616;29;20110;-92
2022/11/16 08:28:29;;;;;;;12.93;4.80;;;6.80;99.90;;;;;;4903871;29;20066;-91
2022/11/16 08:30:55;;;;;;;12.73;3.92;;;6.90;99.90;;;;;;4909705;29;20020;-90
2022/11/16 08:33:22;;;;;;;14.40;4.57;;;6.80;99.90;;;;;;4941970;28;20062;-91
2022/11/16 08:35:48;;;;;;;8.10;3.75;;;6.90;99.90;;;;;;4924067;29;20032;-90
2022/11/16 08:38:14;;;;;;;8.90;4.05;;;6.90;99.90;;;;;;4908971;29;20038;-91
2022/11/16 08:40:40;;;;;;;10.27;3.90;;;7.00;99.90;;;;;;4931610;29;20478;-91
2022/11/16 08:43:06;;;;;;;8.85;3.60;;;7.00;99.90;;;;;;4911051;29;20036;-90
2022/11/16 08:45:32;;;;;;;8.60;4.05;;;7.00;99.90;;;;;;4931625;29;20290;-90
2022/11/16 08:47:58;;;;;;;9.85;3.10;;;7.10;99.90;;;;;;4929964;29;20035;-91
2022/11/16 08:50:24;;;;;;;13.43;4.38;;;7.10;99.90;;;;;;4920385;29;20028;-91
2022/11/16 08:52:50;;;;;;;10.02;4.25;;;7.10;99.90;;;;;;4908407;29;20044;-95
2022/11/16 08:55:17;;;;;;;11.27;3.58;;;7.10;99.90;;;;;;4908165;29;20030;-93
2022/11/16 08:57:43;;;;;;;16.40;4.72;;;7.20;99.90;;;;;;4904120;29;20127;-93
2022/11/16 09:00:10;;;;;;;10.40;4.80;;;7.20;99.90;;;;;;4902889;29;20023;-91
2022/11/16 09:02:36;;;;;;;18.33;4.95;;;7.20;99.90;;;;;;4913041;29;20032;-93
2022/11/16 09:05:03;;;;;;;15.18;4.88;;;7.20;99.90;;;;;;4922071;29;20039;-95
2022/11/16 09:07:28;;;;;;;14.52;4.57;;;7.20;99.90;;;;;;4925454;29;20597;-94
2022/11/16 09:09:54;;;;;;;20.90;5.25;;;7.20;99.90;;;;;;4922861;29;20067;-93
2022/11/16 09:12:22;;;;;;;13.38;5.28;;;7.20;99.90;;;;;;4927554;29;20127;-93
2022/11/16 09:14:48;;;;;;;16.20;5.43;;;7.20;99.90;;;;;;4924466;29;20024;-95
2022/11/16 09:17:14;;;;;;;16.48;5.15;;;7.30;99.90;;;;;;4928516;29;20050;-94
2022/11/16 09:19:39;;;;;;;16.05;4.93;;;7.30;99.90;;;;;;4925484;29;20040;-94
2022/11/16 09:22:05;;;;;;;20.30;6.20;;;7.30;99.90;;;;;;4912232;29;20024;-95
2022/11/16 09:24:33;;;;;;;15.32;6.50;;;7.30;99.90;;;;;;4919909;29;20039;-95
2022/11/16 09:27:02;;;;;;;15.35;5.90;;;7.30;99.90;;;;;;4911755;29;20107;-94
2022/11/16 09:29:29;;;;;;;16.48;5.95;;;7.30;99.90;;;;;;4921922;29;20051;-95
2022/11/16 09:31:57;;;;;;;12.57;5.03;;;7.30;99.90;;;;;;4897553;29;20064;-95
2022/11/16 09:34:24;;;;;;;18.48;5.68;;;7.40;99.90;;;;;;4894859;29;20033;-95
2022/11/16 09:36:49;;;;;;;11.75;5.57;;;7.40;99.90;;;;;;4908811;29;20101;-94
2022/11/16 09:39:15;;;;;;;20.48;6.07;;;7.40;99.90;;;;;;4892908;29;20048;-95
2022/11/16 09:42:03;;;;;;;11.80;5.68;;;7.40;99.90;;;;;;4905147;29;20019;-95
2022/11/16 09:44:50;;;;;;;11.65;4.93;;;7.40;99.90;;;;;;4921149;29;20080;-93
2022/11/16 09:47:36;;;;;;;15.65;5.30;;;7.40;99.90;;;;;;4921294;29;20104;-91
2022/11/16 09:50:32;;;;;;;13.38;5.35;;;7.50;99.90;;;;;;4905469;29;20019;-96
2022/11/16 09:53:39;;;;;;;14.40;4.47;;;7.60;99.90;;;;;;4901847;29;20041;-95
2022/11/16 09:56:21;;;;;;;14.05;5.07;;;7.60;99.90;;;;;;4917941;29;20024;-94
2022/11/16 09:59:24;;;;;;;17.77;6.22;;;7.70;99.90;;;;;;4916058;29;20024;-96
2022/11/16 10:02:04;;;;;;;15.82;6.35;;;7.70;99.90;;;;;;4926829;29;20032;-90
2022/11/16 10:04:54;;;;;;;15.33;5.60;;;7.70;99.90;;;;;;4902729;29;20037;-95
2022/11/16 10:07:25;;;;;;;25.25;7.35;;;7.70;99.90;;;;;;4918921;29;20071;-90
2022/11/16 10:09:51;;;;;;;18.23;7.18;;;7.70;99.90;;;;;;4906036;29;20021;-89
2022/11/16 10:12:23;;;;;;;12.30;7.40;;;7.70;99.90;;;;;;4904919;29;20053;-94
2022/11/16 10:15:24;;;;;;;22.17;7.03;;;7.70;99.90;;;;;;4901877;29;20048;-96
2022/11/16 10:18:18;;;;;;;26.50;7.30;;;7.70;99.90;;;;;;4902181;29;20016;-95
2022/11/16 10:21:07;;;;;;;15.80;6.85;;;7.70;99.90;;;;;;4936617;29;20103;-95
2022/11/16 10:24:17;;;;;;;13.35;6.63;;;7.80;99.90;;;;;;4912480;29;20064;-93
2022/11/16 10:27:04;;;;;;;16.30;7.18;;;7.80;99.90;;;;;;4914989;29;20064;-96
2022/11/16 10:29:45;;;;;;;19.05;7.57;;;7.80;99.90;;;;;;4918327;29;20024;-95
2022/11/16 10:32:38;;;;;;;14.18;6.20;;;7.80;99.90;;;;;;4918547;29;20038;-95
2022/11/16 10:35:16;;;;;;;17.98;5.60;;;7.80;99.90;;;;;;4916170;29;20024;-95
2022/11/16 10:37:50;;;;;;;13.27;5.45;;;7.80;99.90;;;;;;4891048;29;20028;-94
2022/11/16 10:40:18;;;;;;;16.15;5.88;;;7.80;99.90;;;;;;4928934;29;20471;-96
2022/11/16 10:42:50;;;;;;;10.35;5.00;;;7.80;99.90;;;;;;4918436;29;20046;-94
2022/11/16 10:45:29;;;;;;;21.35;6.57;;;7.90;99.90;;;;;;4909668;29;20024;-93
2022/11/16 10:48:19;;;;;;;14.43;5.63;;;7.90;99.90;;;;;;4927200;29;20043;-95
2022/11/16 10:50:47;;;;;;;11.20;5.25;;;8.00;99.90;;;;;;4930106;29;20083;-95
2022/11/16 10:53:14;;;;;;;13.25;5.28;;;8.00;99.90;;;;;;4932942;29;20024;-94
2022/11/16 10:55:40;;;;;;;7.90;4.57;;;8.00;99.90;;;;;;4910108;29;20035;-94
2022/11/16 10:58:06;;;;;;;11.13;4.50;;;8.00;99.90;;;;;;4905848;29;20108;-96
2022/11/16 11:00:52;;;;;;;7.32;3.80;;;8.00;99.90;;;;;;4903661;29;20036;-94
2022/11/16 11:03:29;;;;;;;4.82;3.33;;;8.00;99.90;;;;;;4891705;29;20032;-93
2022/11/16 11:05:55;;;;;;;4.53;2.20;;;8.10;99.90;;;;;;4914076;29;20112;-96
2022/11/16 11:08:31;;;;;;;8.38;3.35;;;8.10;99.90;;;;;;4909935;29;20047;-95
2022/11/16 11:14:11;;;;;;;5.93;2.63;;;8.10;99.90;;;;;;4913011;29;20068;-95
2022/11/16 11:16:37;;;;;;;9.45;2.40;;;8.10;99.90;;;;;;4904682;29;20482;-94
2022/11/16 11:19:26;;;;;;;11.73;2.50;;;8.10;99.90;;;;;;4895126;29;20032;-92
2022/11/16 11:21:57;;;;;;;12.85;3.20;;;8.10;99.90;;;;;;4918081;29;20100;-95
2022/11/16 11:24:23;;;;;;;8.07;2.65;;;8.10;99.90;;;;;;4901796;29;20036;-93
2022/11/16 11:26:56;;;;;;;7.25;2.63;;;8.20;99.90;;;;;;4906579;29;20028;-92
2022/11/16 11:29:26;;;;;;;7.40;3.00;;;8.20;99.90;;;;;;4901784;29;20028;-92
2022/11/16 11:31:58;;;;;;;5.50;2.75;;;8.20;99.90;;;;;;4902501;29;20024;-92
2022/11/16 11:34:28;;;;;;;5.15;2.60;;;8.20;99.90;;;;;;4919485;29;20052;-93
2022/11/16 11:37:00;;;;;;;8.27;2.67;;;8.20;99.90;;;;;;4932819;29;20036;-95
2022/11/16 11:39:32;;;;;;;8.55;3.17;;;8.20;99.90;;;;;;4915103;29;20027;-91
2022/11/16 11:42:13;;;;;;;4.25;3.08;;;8.30;99.90;;;;;;4902997;29;20024;-93
2022/11/16 11:44:55;;;;;;;;;;;8.20;99.90;;;;;;4919746;29;20036;-93
2022/11/16 11:47:43;;;;;;;7.25;2.78;;;8.20;99.90;;;;;;4916804;29;19919;-94
2022/11/16 11:50:19;;;;;;;8.77;3.70;;;8.20;99.90;;;;;;4903891;29;20036;-95
2022/11/16 11:52:57;;;;;;;4.20;3.13;;;8.10;99.90;;;;;;4903721;29;20047;-93
2022/11/16 11:55:23;;;;;;;7.25;3.10;;;8.10;99.90;;;;;;4917534;29;20151;-92
2022/11/16 11:57:52;;;;;;;7.03;3.78;;;8.10;99.90;;;;;;4901428;29;20066;-94
2022/11/16 12:00:18;;;;;;;10.20;3.97;;;8.10;99.90;;;;;;4900480;29;20067;-93
2022/11/16 12:03:16;;;;;;;7.15;3.85;;;8.10;99.90;;;;;;4900357;29;20035;-93
2022/11/16 12:05:57;;;;;;;8.18;3.20;;;8.10;99.90;;;;;;4916607;29;20040;-92
2022/11/16 12:08:48;;;;;;;5.75;3.35;;;8.20;99.90;;;;;;4916243;29;20028;-93
2022/11/16 12:11:35;;;;;;;10.27;3.60;;;8.20;99.90;;;;;;4902326;29;20040;-92
2022/11/16 12:14:22;;;;;;;5.95;3.22;;;8.30;99.90;;;;;;4917409;29;20072;-94
2022/11/16 12:17:00;;;;;;;5.72;3.20;;;8.40;99.90;;;;;;4900044;29;20107;-93
2022/11/16 12:20:20;;;;;;;9.48;3.72;;;8.40;99.90;;;;;;4903424;29;20033;-95
2022/11/16 12:23:15;;;;;;;8.27;3.55;;;8.50;99.90;;;;;;4840977;29;20038;-96
2022/11/16 12:26:01;;;;;;;8.25;3.90;;;8.60;99.90;;;;;;4843010;29;20029;-94
2022/11/16 12:28:37;;;;;;;8.18;3.17;;;8.60;99.90;;;;;;4843967;29;20037;-93
2022/11/16 12:31:20;;;;;;;7.45;3.88;;;8.50;99.90;;;;;;4832146;29;20094;-94
2022/11/16 12:34:11;;;;;;;9.02;3.25;;;8.50;99.90;;;;;;4843527;29;20066;-93
2022/11/16 12:36:58;;;;;;;10.65;3.20;;;8.50;99.90;;;;;;4846724;29;20026;-94
2022/11/16 12:39:26;;;;;;;4.78;2.72;;;8.40;99.90;;;;;;4849946;29;20038;-93
2022/11/16 12:42:18;;;;;;;5.72;2.90;;;8.40;99.90;;;;;;4849498;29;20038;-93
2022/11/16 12:44:58;;;;;;;5.90;2.58;;;8.40;99.90;;;;;;4848307;29;20034;-95
2022/11/16 12:47:42;;;;;;;6.85;2.75;;;8.40;99.90;;;;;;4864556;29;20049;-93
2022/11/16 12:50:42;;;;;;;5.20;2.50;;;8.40;99.90;;;;;;4865530;29;20034;-94
2022/11/16 12:53:26;;;;;;;4.63;2.50;;;8.40;99.90;;;;;;4867950;29;20049;-95
2022/11/16 12:56:16;;;;;;;6.93;2.30;;;8.40;99.90;;;;;;4890179;29;20029;-94
2022/11/16 12:59:10;;;;;;;5.25;2.25;;;8.40;99.90;;;;;;4887877;29;20127;-95
2022/11/16 13:01:57;;;;;;;5.82;3.03;;;8.40;99.90;;;;;;4929763;29;20168;-95
2022/11/16 13:04:45;;;;;;;8.75;4.00;;;8.40;99.90;;;;;;4923239;29;20035;-93
2022/11/16 13:07:23;;;;;;;10.15;4.72;;;8.40;99.90;;;;;;4940177;29;20621;-93
2022/11/16 13:10:04;;;;;;;7.32;4.10;;;8.40;99.90;;;;;;4925359;29;20031;-93
2022/11/16 13:15:52;;;;;;;12.43;3.60;;;8.40;99.90;;;;;;5057257;23;20511;-93
2022/11/16 13:18:23;;;;;;;8.80;3.80;;;8.30;99.90;;;;;;5008579;28;20026;-94
2022/11/16 13:21:19;;;;;;;;;;;8.30;99.90;;;;;;5002095;28;20026;-94
2022/11/16 13:24:08;;;;;;;6.53;3.47;;;8.40;99.90;;;;;;4974497;28;20307;-94
2022/11/16 13:26:54;;;;;;;6.72;3.42;;;8.30;99.90;;;;;;4977702;28;20130;-92
2022/11/16 13:29:48;;;;;;;7.38;3.88;;;8.40;99.90;;;;;;4973331;28;20376;-92
2022/11/16 13:32:25;;;;;;;6.80;3.42;;;8.40;99.90;;;;;;4976127;28;20023;-93
2022/11/16 13:34:54;;;;;;;6.68;3.40;;;8.40;99.90;;;;;;4970976;28;20047;-94
2022/11/16 13:37:41;;;;;;;6.30;4.03;;;8.40;99.90;;;;;;4951726;28;20031;-93
2022/11/16 13:40:20;;;;;;;6.90;3.78;;;8.40;99.90;;;;;;4972437;28;20411;-93
2022/11/16 13:43:16;;;;;;;6.43;3.53;;;8.40;99.90;;;;;;4971382;28;20038;-92
2022/11/16 13:45:58;;;;;;;6.43;4.00;;;8.50;99.90;;;;;;4955170;28;20058;-93
2022/11/16 13:48:31;;;;;;;8.50;3.90;;;8.40;99.90;;;;;;4938807;29;20041;-94
2022/11/16 13:51:09;;;;;;;6.07;4.40;;;8.50;99.90;;;;;;4970990;28;20035;-94
2022/11/16 13:53:46;;;;;;;6.38;4.22;;;8.50;99.90;;;;;;4938954;29;20054;-94
2022/11/16 13:56:15;;;;;;;9.82;4.00;;;8.50;99.90;;;;;;4938258;28;20094;-92
2022/11/16 13:58:49;;;;;;;7.78;4.30;;;8.40;99.90;;;;;;4971148;28;20039;-93
2022/11/16 14:01:18;;;;;;;8.65;4.45;;;8.40;99.90;;;;;;4973421;28;20101;-93